Time;durP1;ratioP1;P1;durP2;ratioP2;P2;SDS_P1;SDS_P2;PMS_P1;PMS_P2;Temp;Humidity;BMP_temperature;BMP_pressure;BME280_temperature;BME280_humidity;BME280_pressure;Samples;Min_cycle;Max_cycle;Signal;HPM_P1;HPM_P2
2021/05/08 00:02:09;;;;;;;8.87;5.43;;;;;;;3.97;71.69;98399.31;125793;1102;22761;-77
2021/05/08 00:04:36;;;;;;;8.53;5.33;;;;;;;3.95;71.61;98396.00;126244;1096;27126;-77
2021/05/08 00:07:03;;;;;;;8.30;4.57;;;;;;;3.90;71.84;98393.91;126247;1101;22737;-77
2021/05/08 00:09:30;;;;;;;7.50;4.43;;;;;;;3.86;72.23;98392.66;126175;1101;22774;-77
2021/05/08 00:11:58;;;;;;;12.20;6.80;;;;;;;3.80;72.29;98402.36;125878;1101;24443;-77
2021/05/08 00:14:26;;;;;;;10.15;5.85;;;;;;;3.76;72.50;98403.81;126194;1096;22767;-77
2021/05/08 00:16:54;;;;;;;10.33;5.93;;;;;;;3.74;72.37;98411.27;126165;1101;22781;-77
2021/05/08 00:19:22;;;;;;;9.10;5.60;;;;;;;3.71;72.84;98416.23;126261;1101;22909;-77
2021/05/08 00:21:51;;;;;;;10.43;6.00;;;;;;;3.67;73.14;98417.67;125812;1096;22803;-77
2021/05/08 00:24:19;;;;;;;9.65;5.55;;;;;;;3.60;73.30;98415.77;126075;1096;27343;-77
2021/05/08 00:26:46;;;;;;;13.57;7.17;;;;;;;3.55;73.46;98420.92;126063;1101;22738;-77
2021/05/08 00:29:14;;;;;;;11.87;7.03;;;;;;;3.49;73.87;98421.74;125869;1101;22910;-77
2021/05/08 00:31:41;;;;;;;11.10;6.93;;;;;;;3.47;74.24;98421.12;126142;1101;22910;-77
2021/05/08 00:34:08;;;;;;;9.27;5.63;;;;;;;3.46;73.96;98424.00;125972;1101;24553;-77
2021/05/08 00:36:35;;;;;;;10.40;6.57;;;;;;;3.42;74.34;98416.32;126055;1101;22920;-77
2021/05/08 00:39:04;;;;;;;13.33;7.13;;;;;;;3.38;74.72;98424.98;126142;1101;22749;-77
2021/05/08 00:41:32;;;;;;;;;;;;;;;3.35;75.30;98430.79;126220;1101;22744;-77
2021/05/08 00:44:00;;;;;;;12.53;6.30;;;;;;;3.30;75.47;98425.17;126128;1101;21471;-77
2021/05/08 00:46:28;;;;;;;14.70;7.83;;;;;;;3.23;75.67;98433.20;126238;1101;22740;-77
2021/05/08 00:48:58;;;;;;;18.00;8.90;;;;;;;3.23;75.67;98431.33;126091;1101;22761;-78
2021/05/08 00:51:26;;;;;;;14.43;6.40;;;;;;;3.22;75.87;98432.38;125873;1103;23695;-77
2021/05/08 00:53:53;;;;;;;14.33;7.60;;;;;;;3.26;75.98;98442.72;126112;1101;22775;-77
2021/05/08 00:56:21;;;;;;;11.90;7.25;;;;;;;3.27;76.20;98436.32;125918;1101;22835;-77
2021/05/08 00:58:50;;;;;;;13.53;7.57;;;;;;;3.26;76.14;98435.50;126207;1101;24263;-77
2021/05/08 01:01:17;;;;;;;8.97;5.77;;;;;;;3.26;76.66;98438.19;125943;1101;22802;-78
2021/05/08 01:03:46;;;;;;;15.90;10.15;;;;;;;3.26;76.79;98442.72;125916;1096;26241;-77
2021/05/08 01:06:14;;;;;;;14.23;9.15;;;;;;;3.32;76.91;98441.95;126198;1096;25903;-77
2021/05/08 01:08:42;;;;;;;14.37;8.30;;;;;;;3.36;76.43;98449.41;126306;1101;22799;-77
2021/05/08 01:11:11;;;;;;;9.70;6.20;;;;;;;3.41;76.46;98438.88;126329;1095;25874;-77
2021/05/08 01:13:39;;;;;;;14.30;7.87;;;;;;;3.48;76.44;98456.94;126308;1101;22740;-77
2021/05/08 01:16:06;;;;;;;11.83;5.80;;;;;;;3.50;76.61;98460.25;126305;1101;22744;-77
2021/05/08 01:18:33;;;;;;;12.57;7.43;;;;;;;3.51;76.53;98456.55;125991;1101;22748;-77
2021/05/08 01:21:02;;;;;;;13.50;8.80;;;;;;;3.54;76.56;98456.97;126234;1096;23187;-77
2021/05/08 01:23:30;;;;;;;13.53;8.23;;;;;;;3.57;76.59;98458.42;126264;1096;26204;-77
2021/05/08 01:25:58;;;;;;;13.40;7.90;;;;;;;3.60;76.12;98460.72;126242;1101;22758;-77
2021/05/08 01:28:27;;;;;;;16.80;9.00;;;;;;;3.65;76.35;98462.80;126279;1096;26209;-77
2021/05/08 01:30:55;;;;;;;10.80;6.78;;;;;;;3.69;76.01;98464.08;126257;1102;22754;-77
2021/05/08 01:33:22;;;;;;;11.27;7.23;;;;;;;3.70;75.89;98469.27;126239;1101;22733;-77
2021/05/08 01:35:49;;;;;;;12.03;8.17;;;;;;;3.73;76.44;98476.10;126353;1102;24377;-77
2021/05/08 01:38:17;;;;;;;12.83;8.13;;;;;;;3.75;75.86;98469.50;126211;1101;22794;-77
2021/05/08 01:40:45;;;;;;;11.25;6.33;;;;;;;3.83;76.10;98470.36;125978;1101;22806;-77
2021/05/08 01:43:20;;;;;;;11.50;7.47;;;;;;;3.86;75.84;98476.17;126231;1101;22740;-77
2021/05/08 01:45:47;;;;;;;12.10;6.63;;;;;;;3.90;76.11;98485.50;126290;1101;22880;-77
2021/05/08 01:48:14;;;;;;;12.40;6.90;;;;;;;3.91;75.86;98479.09;126237;1101;24923;-77
2021/05/08 01:50:41;;;;;;;11.80;7.13;;;;;;;3.93;75.90;98476.17;126220;1101;22769;-77
2021/05/08 01:53:09;;;;;;;12.07;7.90;;;;;;;3.95;75.69;98485.73;126300;1101;22734;-77
2021/05/08 01:55:37;;;;;;;14.63;7.50;;;;;;;3.98;75.75;98481.80;126327;1095;25977;-77
2021/05/08 01:58:06;;;;;;;10.85;6.65;;;;;;;4.03;75.84;98489.28;126136;1096;26213;-77
2021/05/08 02:00:42;;;;;;;12.60;6.63;;;;;;;4.06;75.75;98483.49;126325;1101;22734;-77
2021/05/08 02:03:11;;;;;;;13.17;7.77;;;;;;;4.07;75.34;98490.53;126229;1101;22759;-77
2021/05/08 02:05:41;;;;;;;13.23;6.88;;;;;;;4.09;75.90;98493.84;126365;1101;22752;-78
2021/05/08 02:08:16;;;;;;;11.23;7.43;;;;;;;4.12;75.74;98498.84;126206;1101;22882;-77
2021/05/08 02:10:45;;;;;;;12.90;7.10;;;;;;;4.13;75.62;98495.13;126213;1096;26239;-77
2021/05/08 02:13:14;;;;;;;11.18;7.05;;;;;;;4.16;75.42;98494.70;126292;1101;22733;-78
2021/05/08 02:15:43;;;;;;;9.27;6.17;;;;;;;4.19;75.14;98499.69;126295;1101;22773;-77
2021/05/08 02:18:10;;;;;;;9.23;5.80;;;;;;;4.22;75.38;98501.98;126271;1096;22745;-77
2021/05/08 02:20:43;;;;;;;9.63;5.23;;;;;;;4.22;75.01;98501.16;126175;1101;24573;-77
2021/05/08 02:23:14;;;;;;;7.93;5.70;;;;;;;4.18;75.57;98504.26;126261;1101;22752;-77
2021/05/08 02:25:42;;;;;;;9.40;6.77;;;;;;;4.21;75.24;98505.70;126183;1096;23662;-77
2021/05/08 02:28:11;;;;;;;9.47;6.17;;;;;;;4.22;75.05;98509.25;126001;1102;22765;-77
2021/05/08 02:30:40;;;;;;;10.73;7.17;;;;;;;4.23;75.49;98508.20;126311;1101;22800;-77
2021/05/08 02:33:08;;;;;;;9.80;6.10;;;;;;;4.25;75.12;98512.38;126310;1101;22747;-77
2021/05/08 02:35:37;;;;;;;8.73;5.40;;;;;;;4.28;75.23;98516.52;126329;1096;22742;-77
2021/05/08 02:38:06;;;;;;;7.77;5.07;;;;;;;4.28;75.46;98521.91;126164;1101;22809;-77
2021/05/08 02:40:39;;;;;;;11.37;6.83;;;;;;;4.25;75.30;98514.22;126257;1101;22758;-77
2021/05/08 02:43:08;;;;;;;13.00;7.03;;;;;;;4.26;75.14;98527.49;126316;1102;24126;-77
2021/05/08 02:45:35;;;;;;;;;;;;;;;4.25;75.66;98533.94;126256;1101;22744;-77
2021/05/08 02:48:03;;;;;;;12.57;7.40;;;;;;;4.25;75.07;98527.69;126201;1101;21462;-77
2021/05/08 02:50:33;;;;;;;11.83;7.20;;;;;;;4.26;75.52;98530.19;126231;1101;22754;-77
2021/05/08 02:53:03;;;;;;;8.07;5.60;;;;;;;4.25;75.75;98536.63;126262;1101;22907;-77
2021/05/08 02:55:33;;;;;;;10.60;7.07;;;;;;;4.26;75.87;98542.84;126192;1101;24418;-77
2021/05/08 02:58:02;;;;;;;7.00;5.10;;;;;;;4.26;76.14;98550.93;126252;1101;22734;-77
2021/05/08 03:00:30;;;;;;;12.00;7.08;;;;;;;4.24;76.19;98547.61;126267;1101;22877;-77
2021/05/08 03:02:58;;;;;;;14.53;7.73;;;;;;;4.25;75.80;98550.11;126129;1101;22775;-77
2021/05/08 03:05:25;;;;;;;12.27;7.67;;;;;;;4.27;75.97;98552.61;126215;1101;22741;-77
2021/05/08 03:07:56;;;;;;;11.93;7.33;;;;;;;4.26;75.76;98564.41;126313;1101;24571;-77
2021/05/08 03:10:23;;;;;;;13.20;7.53;;;;;;;4.24;75.65;98555.70;126325;1101;22741;-77
2021/05/08 03:12:51;;;;;;;12.60;7.63;;;;;;;4.18;76.14;98568.13;126171;1096;23934;-77
2021/05/08 03:15:18;;;;;;;14.33;8.37;;;;;;;4.16;75.86;98571.02;126229;1096;23364;-77
2021/05/08 03:17:45;;;;;;;17.00;10.45;;;;;;;4.13;76.23;98565.20;126319;1101;22741;-77
2021/05/08 03:20:13;;;;;;;14.47;9.03;;;;;;;4.14;76.09;98570.39;126156;1096;22893;-77
2021/05/08 03:22:41;;;;;;;13.57;8.10;;;;;;;4.12;75.85;98568.91;126295;1101;22741;-77
2021/05/08 03:25:10;;;;;;;11.13;7.60;;;;;;;4.12;76.18;98574.30;126253;1101;22819;-77
2021/05/08 03:27:37;;;;;;;13.43;7.83;;;;;;;4.10;75.88;98579.88;126162;1102;22741;-77
2021/05/08 03:30:05;;;;;;;15.97;9.50;;;;;;;4.09;76.28;98578.23;126289;1101;22743;-77
2021/05/08 03:32:32;;;;;;;14.83;8.73;;;;;;;4.09;76.31;98585.47;126340;1101;22738;-77
2021/05/08 03:34:59;;;;;;;13.53;8.20;;;;;;;4.12;76.19;98576.99;126263;1101;22771;-77
2021/05/08 03:37:27;;;;;;;10.23;7.20;;;;;;;4.13;76.34;98589.45;126350;1096;22817;-77
2021/05/08 03:39:54;;;;;;;12.23;7.60;;;;;;;4.10;76.33;98585.27;126139;1101;22783;-77
2021/05/08 03:42:21;;;;;;;11.10;7.33;;;;;;;4.07;76.12;98590.23;126150;1101;22806;-77
2021/05/08 03:44:48;;;;;;;13.00;7.80;;;;;;;4.04;76.59;98587.93;126050;1101;22832;-77
2021/05/08 03:47:15;;;;;;;11.97;8.00;;;;;;;4.03;76.27;98597.06;126206;1096;22768;-77
2021/05/08 03:49:42;;;;;;;9.80;6.90;;;;;;;4.04;76.46;98591.48;126186;1101;22834;-77
2021/05/08 03:52:09;;;;;;;12.70;7.50;;;;;;;4.05;76.47;98590.43;126130;1101;22741;-77
2021/05/08 03:54:37;;;;;;;14.77;8.47;;;;;;;4.10;76.69;98595.23;125986;1101;22771;-77
2021/05/08 03:57:05;;;;;;;11.97;7.03;;;;;;;4.13;76.68;98605.63;126154;1101;22803;-77
2021/05/08 03:59:33;;;;;;;12.27;8.57;;;;;;;4.13;76.53;98611.84;126249;1096;27281;-77
2021/05/08 04:02:00;;;;;;;14.40;8.60;;;;;;;4.13;76.48;98598.36;126157;1101;24543;-77
2021/05/08 04:04:28;;;;;;;14.07;8.40;;;;;;;4.17;76.41;98605.00;126232;1101;24141;-77
2021/05/08 04:06:55;;;;;;;10.70;6.87;;;;;;;4.16;76.37;98606.05;126162;1101;22783;-77
2021/05/08 04:09:23;;;;;;;15.30;8.50;;;;;;;4.15;76.36;98612.46;126206;1096;24545;-77
2021/05/08 04:11:50;;;;;;;12.20;8.20;;;;;;;4.16;76.09;98616.84;126144;1101;22758;-77
2021/05/08 04:14:17;;;;;;;16.00;8.77;;;;;;;4.15;76.82;98619.73;126025;1096;22759;-77
2021/05/08 04:16:44;;;;;;;15.97;9.20;;;;;;;4.16;76.54;98621.38;125943;1102;22833;-77
2021/05/08 04:19:11;;;;;;;11.43;8.47;;;;;;;4.15;76.40;98628.63;125917;1097;25970;-77
2021/05/08 04:21:38;;;;;;;13.00;8.73;;;;;;;4.18;76.39;98646.28;125945;1101;24839;-77
2021/05/08 04:24:05;;;;;;;10.33;7.37;;;;;;;4.19;76.39;98646.06;125969;1102;24281;-77
2021/05/08 04:26:32;;;;;;;11.27;8.03;;;;;;;4.21;76.50;98656.64;126352;1101;24421;-77
2021/05/08 04:28:59;;;;;;;12.23;8.53;;;;;;;4.23;76.17;98642.97;126222;1096;22797;-77
2021/05/08 04:31:26;;;;;;;16.27;9.43;;;;;;;4.26;76.62;98651.49;126523;1102;22728;-78
2021/05/08 04:33:53;;;;;;;12.60;8.13;;;;;;;4.30;75.99;98643.84;126896;1101;22840;-78
2021/05/08 04:36:20;;;;;;;11.20;8.07;;;;;;;4.36;76.02;98656.53;126502;1101;22744;-78
2021/05/08 04:38:48;;;;;;;11.40;8.47;;;;;;;4.41;76.35;98655.91;126524;1097;24394;-78
2021/05/08 04:41:15;;;;;;;13.23;8.20;;;;;;;4.44;76.41;98650.13;126827;1101;23386;-77
2021/05/08 04:43:42;;;;;;;15.33;9.10;;;;;;;4.46;75.55;98662.39;127379;1096;22854;-77
2021/05/08 04:46:09;;;;;;;13.10;9.80;;;;;;;4.54;75.84;98664.08;126801;1101;22901;-78
2021/05/08 04:48:36;;;;;;;14.45;8.05;;;;;;;4.61;75.37;98662.23;126764;1101;22803;-78
2021/05/08 04:51:03;;;;;;;13.43;8.87;;;;;;;4.67;75.22;98660.59;126470;1097;22761;-77
2021/05/08 04:53:30;;;;;;;14.93;8.77;;;;;;;4.73;75.00;98659.80;126465;1101;22919;-78
2021/05/08 04:55:58;;;;;;;12.33;7.83;;;;;;;4.78;74.75;98670.82;126444;1096;22731;-77
2021/05/08 04:58:26;;;;;;;11.25;7.95;;;;;;;4.79;74.96;98669.77;126173;1101;24558;-77
2021/05/08 05:00:53;;;;;;;11.43;8.23;;;;;;;4.84;74.41;98675.39;125807;1103;22743;-76
2021/05/08 05:03:20;;;;;;;13.87;9.00;;;;;;;4.85;74.18;98679.77;126050;1101;22726;-77
2021/05/08 05:05:47;;;;;;;13.07;8.50;;;;;;;4.88;74.49;98678.52;126121;1096;25976;-77
2021/05/08 05:08:19;;;;;;;11.97;7.80;;;;;;;4.93;74.46;98676.05;125875;1102;22877;-77
2021/05/08 05:10:53;;;;;;;12.67;8.87;;;;;;;4.98;74.27;98683.55;126144;1096;26210;-77
2021/05/08 05:13:20;;;;;;;14.00;9.27;;;;;;;5.04;74.84;98682.72;126162;1096;22558;-77
2021/05/08 05:15:47;;;;;;;15.10;10.03;;;;;;;5.16;74.19;98686.48;126052;1101;22728;-77
2021/05/08 05:18:15;;;;;;;15.30;10.40;;;;;;;5.26;73.81;98691.50;125824;1102;24419;-77
2021/05/08 05:20:44;;;;;;;12.93;7.93;;;;;;;5.37;74.18;98693.59;126146;1101;22758;-77
2021/05/08 05:23:12;;;;;;;14.13;9.30;;;;;;;5.44;73.63;98699.00;126162;1101;22750;-77
2021/05/08 05:25:40;;;;;;;12.23;8.37;;;;;;;5.47;73.12;98693.16;126198;1096;22741;-77
2021/05/08 05:28:24;;;;;;;10.80;8.60;;;;;;;5.50;73.40;98711.67;126130;1096;26209;-77
2021/05/08 05:30:52;;;;;;;11.70;7.47;;;;;;;5.48;73.06;98709.17;126139;1101;22765;-77
2021/05/08 05:33:19;;;;;;;14.67;10.77;;;;;;;5.51;73.34;98705.24;126151;1096;22739;-77
2021/05/08 05:35:48;;;;;;;11.93;8.70;;;;;;;5.56;73.05;98715.41;126052;1096;25842;-77
2021/05/08 05:38:16;;;;;;;18.13;10.98;;;;;;;5.62;73.17;98714.60;125938;1103;22764;-77
2021/05/08 05:40:44;;;;;;;13.40;9.97;;;;;;;5.65;72.82;98712.32;126189;1101;22765;-77
2021/05/08 05:43:12;;;;;;;14.73;9.90;;;;;;;5.71;72.76;98716.88;126096;1101;22826;-77
2021/05/08 05:45:39;;;;;;;11.47;7.13;;;;;;;5.77;73.24;98714.39;126134;1096;22751;-77
2021/05/08 05:48:07;;;;;;;14.03;9.77;;;;;;;5.81;73.15;98710.25;126105;1101;22761;-77
2021/05/08 05:50:43;;;;;;;12.37;8.93;;;;;;;5.94;73.29;98714.81;126116;1101;24418;-77
2021/05/08 05:53:10;;;;;;;18.10;10.47;;;;;;;6.01;72.28;98711.09;126093;1101;22771;-77
2021/05/08 05:55:37;;;;;;;13.13;9.00;;;;;;;6.05;71.43;98714.20;125843;1101;22809;-77
2021/05/08 05:58:05;;;;;;;11.33;8.47;;;;;;;6.09;71.61;98726.25;126083;1101;22738;-77
2021/05/08 06:00:32;;;;;;;14.60;9.10;;;;;;;6.08;71.68;98716.50;125796;1101;22737;-77
2021/05/08 06:02:59;;;;;;;10.90;7.97;;;;;;;5.99;71.24;98726.69;126035;1101;22781;-77
2021/05/08 06:05:26;;;;;;;13.20;8.80;;;;;;;5.93;70.87;98721.25;126070;1101;22771;-77
2021/05/08 06:07:53;;;;;;;12.57;8.90;;;;;;;5.89;71.04;98721.66;125820;1101;22834;-77
2021/05/08 06:10:20;;;;;;;9.90;7.00;;;;;;;5.90;71.07;98719.81;126089;1101;22762;-77
2021/05/08 06:12:47;;;;;;;10.23;6.90;;;;;;;5.94;71.58;98723.75;126063;1101;22839;-77
2021/05/08 06:15:14;;;;;;;12.30;8.27;;;;;;;5.99;70.91;98723.16;126066;1101;22791;-77
2021/05/08 06:17:41;;;;;;;12.70;7.37;;;;;;;6.07;70.86;98728.34;126144;1101;22737;-77
2021/05/08 06:20:09;;;;;;;11.43;7.20;;;;;;;6.15;70.57;98722.73;126078;1096;26209;-78
2021/05/08 06:22:37;;;;;;;9.80;7.00;;;;;;;6.23;70.03;98729.78;126122;1101;22829;-77
2021/05/08 06:25:05;;;;;;;10.40;6.80;;;;;;;6.27;69.92;98734.57;126070;1096;27639;-76
2021/05/08 06:27:32;;;;;;;10.00;6.90;;;;;;;6.35;69.79;98728.09;126118;1101;24421;-77
2021/05/08 06:29:59;;;;;;;11.40;7.07;;;;;;;6.45;70.47;98733.09;125825;1102;22755;-77
2021/05/08 06:32:26;;;;;;;8.40;5.50;;;;;;;6.54;69.79;98731.81;126112;1101;22805;-76
2021/05/08 06:34:53;;;;;;;11.60;6.70;;;;;;;6.64;69.45;98740.32;126091;1101;22809;-76
2021/05/08 06:37:20;;;;;;;13.10;6.83;;;;;;;6.74;69.00;98737.16;126070;1101;22734;-76
2021/05/08 06:39:47;;;;;;;8.20;5.80;;;;;;;6.82;68.04;98728.80;125813;1096;26250;-79
2021/05/08 06:42:14;;;;;;;11.60;6.55;;;;;;;6.93;68.01;98731.89;126104;1101;22741;-76
2021/05/08 06:44:41;;;;;;;9.97;6.00;;;;;;;7.11;69.14;98732.01;126068;1101;22747;-77
2021/05/08 06:47:14;;;;;;;7.70;5.20;;;;;;;7.30;66.41;98737.55;126047;1101;22764;-77
2021/05/08 06:49:45;;;;;;;10.00;5.27;;;;;;;7.39;66.38;98728.94;126102;1096;25889;-77
2021/05/08 06:52:12;;;;;;;5.80;4.60;;;;;;;7.42;65.53;98730.40;126012;1101;22737;-77
2021/05/08 06:54:39;;;;;;;5.70;4.50;;;;;;;7.37;64.89;98735.64;126110;1096;27186;-76
2021/05/08 06:57:06;;;;;;;6.60;3.80;;;;;;;7.31;64.95;98733.78;125968;1101;22765;-76
2021/05/08 06:59:34;;;;;;;5.00;3.85;;;;;;;7.29;64.13;98744.01;125896;1096;22711;-77
2021/05/08 07:02:01;;;;;;;5.10;3.40;;;;;;;7.25;63.41;98743.61;126080;1096;22758;-76
2021/05/08 07:04:28;;;;;;;5.40;3.65;;;;;;;7.19;64.57;98731.77;126088;1095;27173;-77
2021/05/08 07:06:55;;;;;;;7.17;3.90;;;;;;;7.17;64.94;98735.72;125830;1102;22744;-76
2021/05/08 07:09:22;;;;;;;6.00;4.30;;;;;;;7.21;65.18;98729.67;126081;1101;24284;-76
2021/05/08 07:11:49;;;;;;;5.20;3.60;;;;;;;7.29;65.91;98727.75;125875;1102;22747;-76
2021/05/08 07:14:16;;;;;;;5.80;3.75;;;;;;;7.40;64.51;98733.33;126082;1101;22916;-77
2021/05/08 07:16:43;;;;;;;5.57;3.33;;;;;;;7.51;64.02;98731.80;125806;1096;24421;-77
2021/05/08 07:19:10;;;;;;;6.63;3.87;;;;;;;7.61;64.11;98734.01;125813;1101;22828;-77
2021/05/08 07:21:38;;;;;;;8.80;4.10;;;;;;;7.74;63.45;98733.11;126070;1101;22761;-77
2021/05/08 07:24:07;;;;;;;7.40;3.43;;;;;;;7.88;62.52;98731.09;125894;1096;27119;-76
2021/05/08 07:26:35;;;;;;;6.20;3.60;;;;;;;7.96;61.55;98723.52;126113;1096;22748;-76
2021/05/08 07:29:02;;;;;;;5.03;3.20;;;;;;;8.08;60.76;98723.64;125850;1096;24562;-77
2021/05/08 07:31:30;;;;;;;7.47;4.20;;;;;;;8.23;60.42;98727.89;125873;1103;22779;-77
2021/05/08 07:33:57;;;;;;;5.80;2.83;;;;;;;8.40;60.98;98737.12;125811;1101;22783;-77
2021/05/08 07:36:24;;;;;;;5.90;3.30;;;;;;;8.58;60.06;98740.94;126048;1096;25867;-77
2021/05/08 07:38:51;;;;;;;5.77;3.03;;;;;;;8.73;59.21;98727.84;126143;1101;22797;-77
2021/05/08 07:41:18;;;;;;;3.75;2.75;;;;;;;8.88;58.28;98735.59;126065;1096;26206;-77
2021/05/08 07:43:45;;;;;;;4.77;3.00;;;;;;;8.95;56.97;98733.63;125801;1096;27291;-77
2021/05/08 07:46:12;;;;;;;5.20;2.63;;;;;;;8.95;57.67;98736.34;125809;1101;22910;-77
2021/05/08 07:48:39;;;;;;;5.77;3.07;;;;;;;8.90;57.09;98728.86;126029;1101;24378;-77
2021/05/08 07:51:06;;;;;;;5.03;2.70;;;;;;;8.85;56.63;98736.89;126020;1101;22809;-76
2021/05/08 07:53:33;;;;;;;5.60;2.60;;;;;;;8.86;56.35;98735.81;126105;1101;22761;-77
2021/05/08 07:56:00;;;;;;;3.65;2.30;;;;;;;8.77;55.19;98734.46;125800;1096;27458;-77
2021/05/08 07:58:28;;;;;;;4.40;2.40;;;;;;;8.86;56.54;98734.98;126045;1101;22772;-77
2021/05/08 08:00:57;;;;;;;4.65;2.00;;;;;;;9.00;56.32;98738.38;125808;1101;22767;-77
2021/05/08 08:03:24;;;;;;;2.55;1.40;;;;;;;9.20;53.64;98736.22;125822;1101;22806;-77
2021/05/08 08:05:51;;;;;;;5.65;2.20;;;;;;;9.38;52.85;98729.91;126161;1096;26245;-77
2021/05/08 08:08:18;;;;;;;2.40;2.17;;;;;;;9.60;53.60;98727.52;126101;1096;27429;-77
2021/05/08 08:10:45;;;;;;;5.70;2.35;;;;;;;9.73;54.46;98736.54;126038;1101;22761;-77
2021/05/08 08:13:13;;;;;;;4.03;2.03;;;;;;;9.89;52.72;98738.58;125784;1101;22900;-77
2021/05/08 08:15:44;;;;;;;3.05;1.40;;;;;;;9.88;49.97;98726.88;126062;1096;26658;-77
2021/05/08 08:18:13;;;;;;;2.08;1.63;;;;;;;10.08;50.37;98729.27;125989;1101;22747;-77
2021/05/08 08:20:40;;;;;;;3.63;1.83;;;;;;;10.15;49.15;98728.34;126042;1097;27291;-77
2021/05/08 08:23:07;;;;;;;3.67;2.27;;;;;;;10.10;48.32;98737.20;125940;1096;25851;-77
2021/05/08 08:25:39;;;;;;;3.60;2.00;;;;;;;9.95;50.12;98734.94;125928;1101;24402;-77
2021/05/08 08:28:09;;;;;;;4.35;1.90;;;;;;;9.77;49.68;98738.55;125823;1103;22765;-77
2021/05/08 08:30:36;;;;;;;3.20;1.30;;;;;;;9.63;49.47;98746.09;125834;1096;22809;-77
2021/05/08 08:33:03;;;;;;;3.03;1.50;;;;;;;9.46;49.63;98748.63;125888;1096;22829;-77
2021/05/08 08:35:30;;;;;;;2.50;1.75;;;;;;;9.40;50.68;98754.15;125892;1102;22743;-77
2021/05/08 08:38:00;;;;;;;4.25;1.75;;;;;;;9.37;50.84;98743.77;125872;1097;25983;-77
2021/05/08 08:40:28;;;;;;;4.43;2.13;;;;;;;9.39;50.66;98747.89;126137;1101;22829;-77
2021/05/08 08:42:58;;;;;;;2.90;1.60;;;;;;;9.40;50.34;98755.00;125908;1096;22865;-77
2021/05/08 08:45:25;;;;;;;2.53;1.87;;;;;;;9.39;51.01;98737.02;125855;1096;22830;-77
2021/05/08 08:47:58;;;;;;;2.40;1.53;;;;;;;9.47;52.33;98741.30;126017;1102;22775;-77
2021/05/08 08:50:30;;;;;;;3.40;1.80;;;;;;;9.54;50.72;98750.19;125924;1101;22936;-77
2021/05/08 08:53:00;;;;;;;2.53;1.50;;;;;;;9.53;51.85;98748.55;126150;1096;25887;-77
2021/05/08 08:55:28;;;;;;;3.30;1.30;;;;;;;9.47;50.90;98753.02;125913;1101;22809;-77
2021/05/08 08:57:59;;;;;;;1.65;1.40;;;;;;;9.52;51.02;98755.02;126199;1101;22748;-77
2021/05/08 09:00:26;;;;;;;2.10;1.63;;;;;;;9.58;51.52;98753.27;125894;1096;22860;-77
2021/05/08 09:02:53;;;;;;;2.55;1.55;;;;;;;9.61;51.31;98750.91;126238;1096;25874;-77
2021/05/08 09:05:25;;;;;;;2.25;1.55;;;;;;;9.62;51.32;98755.30;125887;1096;22751;-77
2021/05/08 09:07:59;;;;;;;3.00;1.90;;;;;;;9.73;51.06;98763.73;125925;1102;22753;-77
2021/05/08 09:10:30;;;;;;;2.65;1.70;;;;;;;9.80;51.62;98764.47;126181;1101;22809;-77
2021/05/08 09:13:04;;;;;;;2.47;1.73;;;;;;;9.82;49.95;98762.34;125936;1096;22870;-77
2021/05/08 09:15:38;;;;;;;3.50;1.70;;;;;;;9.81;50.22;98768.83;126116;1101;22751;-77
2021/05/08 09:18:07;;;;;;;2.73;1.70;;;;;;;9.80;50.41;98767.19;126217;1097;25871;-77
2021/05/08 09:20:48;;;;;;;5.05;3.10;;;;;;;9.76;50.21;98761.38;126132;1101;22775;-77
2021/05/08 09:23:36;;;;;;;2.25;1.85;;;;;;;9.77;50.57;98757.58;125877;1095;27123;-77
2021/05/08 09:26:21;;;;;;;4.57;2.40;;;;;;;10.13;50.08;98754.94;125929;1096;22764;-77
2021/05/08 09:28:53;;;;;;;3.63;1.90;;;;;;;10.49;48.99;98750.39;126175;1101;24407;-77
2021/05/08 09:31:20;;;;;;;2.80;2.45;;;;;;;10.73;48.33;98752.03;126115;1101;22747;-77
2021/05/08 09:33:52;;;;;;;5.50;2.10;;;;;;;10.75;48.82;98755.34;125900;1102;22760;-77
2021/05/08 09:36:19;;;;;;;4.55;2.00;;;;;;;10.70;47.38;98757.13;125941;1097;22978;-77
2021/05/08 09:38:47;;;;;;;1.90;1.70;;;;;;;10.55;46.71;98763.89;126135;1101;22750;-77
2021/05/08 09:41:19;;;;;;;3.90;1.85;;;;;;;10.37;47.54;98780.33;126106;1101;22967;-77
2021/05/08 09:43:46;;;;;;;2.43;1.87;;;;;;;10.16;47.78;98763.45;126267;1096;25880;-77
2021/05/08 09:46:30;;;;;;;5.00;2.10;;;;;;;10.03;48.00;98767.23;125977;1102;22829;-77
2021/05/08 09:49:11;;;;;;;4.05;2.20;;;;;;;9.94;49.78;98765.91;126106;1101;22923;-77
2021/05/08 09:51:38;;;;;;;2.80;2.45;;;;;;;10.11;51.10;98760.64;125859;1102;22837;-77
2021/05/08 09:54:19;;;;;;;3.60;2.00;;;;;;;10.54;48.54;98762.22;126027;1101;24134;-77
2021/05/08 09:56:48;;;;;;;3.10;1.47;;;;;;;10.85;45.51;98749.27;125860;1101;22750;-77
2021/05/08 09:59:22;;;;;;;;;;;;;;;11.05;45.62;98750.77;126213;1101;22744;-77
2021/05/08 10:02:08;;;;;;;4.15;2.55;;;;;;;11.20;45.05;98751.09;126121;1101;21556;-77
2021/05/08 10:04:49;;;;;;;3.85;2.00;;;;;;;11.24;44.84;98740.53;126116;1096;26251;-77
2021/05/08 10:07:18;;;;;;;2.60;2.00;;;;;;;11.29;43.45;98743.36;126078;1101;22765;-77
2021/05/08 10:09:46;;;;;;;;;;;;;;;11.32;44.66;98740.16;125947;1101;22791;-77
2021/05/08 10:12:21;;;;;;;4.50;2.35;;;;;;;11.57;46.70;98756.98;126195;1101;21461;-77
2021/05/08 10:14:51;;;;;;;3.40;2.10;;;;;;;11.78;44.85;98735.55;126193;1097;25852;-77
2021/05/08 10:17:38;;;;;;;5.35;2.50;;;;;;;11.92;45.37;98738.83;125969;1101;24396;-77
2021/05/08 10:20:08;;;;;;;2.15;1.85;;;;;;;11.96;43.77;98742.70;125794;1101;22758;-76
2021/05/08 10:22:41;;;;;;;2.63;2.10;;;;;;;11.90;43.48;98751.86;125853;1096;22758;-76
2021/05/08 10:25:09;;;;;;;3.20;1.95;;;;;;;11.78;43.81;98747.28;126062;1101;22907;-77
2021/05/08 10:27:36;;;;;;;3.20;1.90;;;;;;;11.72;41.81;98739.24;125810;1101;22813;-77
2021/05/08 10:30:06;;;;;;;2.60;1.70;;;;;;;11.72;42.45;98748.28;125863;1101;22747;-76
2021/05/08 10:32:38;;;;;;;2.53;1.63;;;;;;;11.64;41.51;98739.66;126112;1101;22719;-77
2021/05/08 10:35:06;;;;;;;5.40;2.35;;;;;;;11.58;44.10;98744.20;126121;1101;22745;-76
2021/05/08 10:37:33;;;;;;;4.93;2.57;;;;;;;11.55;45.79;98734.59;125876;1102;22740;-76
2021/05/08 10:40:06;;;;;;;3.65;2.15;;;;;;;11.62;45.12;98742.63;126140;1101;22738;-76
2021/05/08 10:42:34;;;;;;;3.90;2.20;;;;;;;11.64;44.37;98745.94;126043;1101;22745;-76
2021/05/08 10:45:22;;;;;;;4.70;3.10;;;;;;;11.65;43.78;98744.02;125809;1101;22759;-76
2021/05/08 10:47:55;;;;;;;3.93;2.70;;;;;;;11.61;42.98;98751.05;126075;1101;22749;-76
2021/05/08 10:50:38;;;;;;;2.77;2.30;;;;;;;11.63;43.77;98749.72;126045;1101;22797;-76
2021/05/08 10:53:08;;;;;;;3.10;2.30;;;;;;;11.62;43.36;98749.99;125879;1096;25870;-76
2021/05/08 10:55:42;;;;;;;3.05;2.00;;;;;;;11.52;45.46;98756.89;126153;1101;22751;-77
2021/05/08 10:58:22;;;;;;;4.80;2.50;;;;;;;11.43;44.51;98758.36;125850;1097;22819;-77
2021/05/08 11:00:58;;;;;;;2.10;1.90;;;;;;;11.27;45.97;98762.68;126101;1097;27138;-77
2021/05/08 11:03:30;;;;;;;3.10;2.60;;;;;;;11.17;45.53;98757.87;126086;1101;22832;-76
2021/05/08 11:06:14;;;;;;;4.80;2.75;;;;;;;11.14;47.07;98769.25;126097;1096;27073;-76
2021/05/08 11:08:49;;;;;;;4.60;2.80;;;;;;;10.96;47.48;98772.96;125827;1102;22907;-76
2021/05/08 11:11:22;;;;;;;4.30;2.45;;;;;;;11.09;47.92;98762.86;126081;1101;22784;-76
2021/05/08 11:13:56;;;;;;;5.05;2.90;;;;;;;11.40;45.59;98756.11;125841;1102;22743;-77
2021/05/08 11:16:28;;;;;;;3.90;2.50;;;;;;;11.76;42.84;98751.34;125810;1097;27223;-76
2021/05/08 11:19:00;;;;;;;2.60;2.30;;;;;;;12.04;44.75;98753.22;126016;1097;27151;-77
2021/05/08 11:21:31;;;;;;;2.60;2.10;;;;;;;12.33;44.19;98748.48;125831;1101;22744;-77
2021/05/08 11:24:04;;;;;;;4.30;2.90;;;;;;;12.61;45.43;98741.27;126165;1101;22745;-77
2021/05/08 11:26:45;;;;;;;6.17;3.50;;;;;;;12.93;41.79;98740.61;125854;1096;27127;-76
2021/05/08 11:29:24;;;;;;;4.40;2.60;;;;;;;13.08;41.14;98738.08;125831;1102;22771;-77
2021/05/08 11:31:54;;;;;;;5.17;2.07;;;;;;;13.28;39.69;98736.67;126074;1101;24397;-77
2021/05/08 11:34:24;;;;;;;4.30;2.57;;;;;;;13.53;37.86;98733.41;126167;1097;26209;-77
2021/05/08 11:36:55;;;;;;;3.35;2.35;;;;;;;13.83;37.73;98732.89;126146;1101;23690;-77
2021/05/08 11:39:30;;;;;;;6.73;3.20;;;;;;;14.11;37.09;98720.00;126146;1097;25865;-77